Time;durP1;ratioP1;P1;durP2;ratioP2;P2;SDS_P1;SDS_P2;PMS_P1;PMS_P2;Temp;Humidity;BMP_temperature;BMP_pressure;BME280_temperature;BME280_humidity;BME280_pressure;Samples;Min_cycle;Max_cycle;Signal;HPM_P1;HPM_P2
2023/01/25 00:00:28;;;;;;;38.92;20.58;;;0.20;99.90;;;;;;5103320;27;20023;-62
2023/01/25 00:02:55;;;;;;;33.88;18.98;;;0.20;99.90;;;;;;5102583;27;20408;-64
2023/01/25 00:05:23;;;;;;;36.85;19.88;;;0.20;99.90;;;;;;5104200;27;20180;-62
2023/01/25 00:07:49;;;;;;;31.17;17.42;;;0.20;99.90;;;;;;5103130;27;20315;-62
2023/01/25 00:10:16;;;;;;;;;;;0.20;99.90;;;;;;5103903;27;20043;-62
2023/01/25 00:12:42;;;;;;;31.70;18.00;;;0.20;99.90;;;;;;5103671;27;19923;-63
2023/01/25 00:15:09;;;;;;;;;;;0.20;99.90;;;;;;5103202;27;20047;-62
2023/01/25 00:17:36;;;;;;;32.47;18.80;;;0.20;99.90;;;;;;5099815;27;20029;-62
2023/01/25 00:20:03;;;;;;;;;;;0.20;99.90;;;;;;5103369;27;20753;-62
2023/01/25 00:22:30;;;;;;;36.17;19.35;;;0.20;99.90;;;;;;5102406;27;20424;-62
2023/01/25 00:24:56;;;;;;;;;;;0.20;99.90;;;;;;5101803;27;20087;-63
2023/01/25 00:27:23;;;;;;;35.33;18.13;;;0.20;99.90;;;;;;5100381;27;19919;-64
2023/01/25 00:29:49;;;;;;;;;;;0.20;99.90;;;;;;5101478;27;20321;-64
2023/01/25 00:32:16;;;;;;;33.53;17.67;;;0.20;99.90;;;;;;5101887;27;20413;-64
2023/01/25 00:34:47;;;;;;;30.05;17.42;;;0.20;99.90;;;;;;5104692;27;20567;-64
2023/01/25 00:37:27;;;;;;;38.05;20.48;;;0.10;99.90;;;;;;5100754;27;20050;-65
2023/01/25 00:39:56;;;;;;;38.38;19.33;;;0.20;99.90;;;;;;5081696;27;20043;-63
2023/01/25 00:42:22;;;;;;;;;;;0.10;99.90;;;;;;5103148;27;20573;-63
2023/01/25 00:44:49;;;;;;;42.70;21.92;;;0.10;99.90;;;;;;5090976;27;20006;-63
2023/01/25 00:47:18;;;;;;;36.00;21.13;;;0.10;99.90;;;;;;5102827;27;20035;-64
2023/01/25 00:49:45;;;;;;;;;;;0.10;99.90;;;;;;5083976;27;20503;-64
2023/01/25 00:52:13;;;;;;;36.53;20.50;;;0.10;99.90;;;;;;5102480;27;20280;-63
2023/01/25 00:54:40;;;;;;;41.75;21.98;;;0.10;99.90;;;;;;5100365;27;20066;-64
2023/01/25 00:57:07;;;;;;;42.03;22.88;;;0.10;99.90;;;;;;5102098;27;20092;-64
2023/01/25 00:59:34;;;;;;;40.05;21.45;;;0.10;99.90;;;;;;5091431;28;20048;-64
2023/01/25 01:02:01;;;;;;;44.80;22.42;;;0.10;99.90;;;;;;5087027;27;20319;-64
2023/01/25 01:04:29;;;;;;;43.22;22.88;;;0.10;99.90;;;;;;5103520;27;20486;-65
2023/01/25 01:06:56;;;;;;;41.90;23.17;;;0.10;99.90;;;;;;5093288;27;20544;-63
2023/01/25 01:09:23;;;;;;;;;;;0.10;99.90;;;;;;5090691;28;20040;-63
2023/01/25 01:11:51;;;;;;;34.25;18.45;;;0.10;99.90;;;;;;5101528;27;19931;-64
2023/01/25 01:14:19;;;;;;;36.20;20.17;;;0.10;99.90;;;;;;5082800;27;20050;-64
2023/01/25 01:16:46;;;;;;;37.67;21.25;;;0.10;99.90;;;;;;5103164;27;20104;-63
2023/01/25 01:19:13;;;;;;;42.30;22.65;;;0.10;99.90;;;;;;5099249;27;20039;-64
2023/01/25 01:21:40;;;;;;;37.85;22.20;;;0.10;99.90;;;;;;5083574;27;20140;-64
2023/01/25 01:24:09;;;;;;;38.25;21.80;;;0.10;99.90;;;;;;5102468;27;20118;-64
2023/01/25 01:26:36;;;;;;;36.20;21.52;;;0.10;99.90;;;;;;5085868;28;20047;-65
2023/01/25 01:29:03;;;;;;;37.97;20.13;;;0.10;99.90;;;;;;5104871;27;20048;-65
2023/01/25 01:31:30;;;;;;;40.05;21.02;;;0.10;99.90;;;;;;5104085;27;20039;-64
2023/01/25 01:34:15;;;;;;;38.15;19.52;;;0.10;99.90;;;;;;5105720;27;20303;-64
2023/01/25 01:36:42;;;;;;;;;;;0.10;99.90;;;;;;5104678;27;20055;-63
2023/01/25 01:39:09;;;;;;;32.08;17.27;;;0.10;99.90;;;;;;5085900;27;20283;-64
2023/01/25 01:41:36;;;;;;;38.28;20.30;;;0.10;99.90;;;;;;5103859;27;20075;-64
2023/01/25 01:44:05;;;;;;;42.65;21.80;;;0.10;99.90;;;;;;5085265;27;20611;-63
2023/01/25 01:46:38;;;;;;;37.85;21.05;;;0.10;99.90;;;;;;5087363;27;20202;-64
2023/01/25 01:49:20;;;;;;;36.78;19.98;;;0.10;99.90;;;;;;5088970;27;20361;-64
2023/01/25 01:51:51;;;;;;;35.00;20.45;;;0.10;99.90;;;;;;5087766;27;20067;-64
2023/01/25 01:54:29;;;;;;;44.53;24.52;;;0.10;99.90;;;;;;5086680;27;20104;-63
2023/01/25 01:57:11;;;;;;;40.03;21.35;;;0.10;99.90;;;;;;5095613;27;20039;-64
2023/01/25 02:00:12;;;;;;;41.25;22.10;;;0.10;99.90;;;;;;5086073;27;20063;-64
2023/01/25 02:02:40;;;;;;;40.92;21.83;;;0.10;99.90;;;;;;5104378;27;20062;-64
2023/01/25 02:05:15;;;;;;;33.88;20.55;;;0.10;99.90;;;;;;5088676;27;20130;-64
2023/01/25 02:07:45;;;;;;;41.85;23.58;;;0.10;99.90;;;;;;5104744;27;20048;-64
2023/01/25 02:10:13;;;;;;;38.25;21.67;;;0.10;99.90;;;;;;5088011;27;20043;-64
2023/01/25 02:12:42;;;;;;;34.88;19.60;;;0.10;99.90;;;;;;5107175;27;20040;-64
2023/01/25 02:15:09;;;;;;;41.15;22.20;;;0.10;99.90;;;;;;5087179;27;20054;-64
2023/01/25 02:17:38;;;;;;;36.70;20.52;;;0.10;99.90;;;;;;5105510;27;20549;-64
2023/01/25 02:20:17;;;;;;;36.90;21.63;;;0.10;99.90;;;;;;5108344;27;20043;-64
2023/01/25 02:22:51;;;;;;;34.22;19.40;;;0.10;99.90;;;;;;5099607;27;20467;-64
2023/01/25 02:25:18;;;;;;;38.60;22.05;;;0.10;99.90;;;;;;5098940;27;20553;-64
2023/01/25 02:27:56;;;;;;;40.13;22.13;;;0.10;99.90;;;;;;5103586;27;20267;-64
2023/01/25 02:30:25;;;;;;;41.35;23.23;;;0.10;99.90;;;;;;5087124;27;20505;-64
2023/01/25 02:32:51;;;;;;;;;;;0.10;99.90;;;;;;5105924;27;20528;-63
2023/01/25 02:35:34;;;;;;;37.50;21.98;;;0.10;99.90;;;;;;5086799;27;20231;-64
2023/01/25 02:38:01;;;;;;;39.05;21.85;;;0.10;99.90;;;;;;5102148;27;20549;-64
2023/01/25 02:40:31;;;;;;;39.38;22.63;;;0.10;99.90;;;;;;5091777;27;20166;-63
2023/01/25 02:42:58;;;;;;;36.92;19.67;;;0.10;99.90;;;;;;5105009;27;20143;-62
2023/01/25 02:45:28;;;;;;;41.42;24.13;;;0.10;99.90;;;;;;5086551;27;20043;-62
2023/01/25 02:47:55;;;;;;;40.67;20.88;;;0.10;99.90;;;;;;5086069;27;20039;-62
2023/01/25 02:50:22;;;;;;;38.78;21.30;;;0.10;99.90;;;;;;5102444;27;20046;-62
2023/01/25 02:52:48;;;;;;;;;;;0.10;99.90;;;;;;5105515;27;20051;-62
2023/01/25 02:55:17;;;;;;;39.15;21.58;;;0.10;99.90;;;;;;5083473;27;20144;-62
2023/01/25 02:57:45;;;;;;;33.30;18.95;;;0.10;99.90;;;;;;5085999;27;20131;-65
2023/01/25 03:00:14;;;;;;;38.75;22.63;;;0.10;99.90;;;;;;5102622;27;20489;-62
2023/01/25 03:02:42;;;;;;;40.67;21.27;;;0.10;99.90;;;;;;5084161;27;20054;-64
2023/01/25 03:05:10;;;;;;;39.03;21.50;;;0.10;99.90;;;;;;5086181;27;20130;-63
2023/01/25 03:07:37;;;;;;;43.72;23.23;;;0.10;99.90;;;;;;5082873;27;20142;-63
2023/01/25 03:10:04;;;;;;;44.40;25.58;;;0.10;99.90;;;;;;5092872;27;20047;-64
2023/01/25 03:12:33;;;;;;;42.55;23.23;;;0.10;99.90;;;;;;5083156;27;20430;-63
2023/01/25 03:15:00;;;;;;;;;;;0.10;99.90;;;;;;5085200;27;20527;-64
2023/01/25 03:17:27;;;;;;;44.70;24.13;;;0.10;99.90;;;;;;5103626;27;19938;-63
2023/01/25 03:19:54;;;;;;;50.35;25.38;;;0.00;99.90;;;;;;5083254;27;20264;-63
2023/01/25 03:22:22;;;;;;;46.20;25.35;;;0.00;99.90;;;;;;5085220;27;20385;-63
2023/01/25 03:24:50;;;;;;;49.80;25.23;;;0.00;99.90;;;;;;5091464;27;20043;-64
2023/01/25 03:27:17;;;;;;;;;;;0.00;99.90;;;;;;5103723;27;20077;-63
2023/01/25 03:29:51;;;;;;;43.17;22.65;;;0.00;99.90;;;;;;5083720;27;20067;-63
2023/01/25 03:32:21;;;;;;;50.38;26.15;;;0.00;99.90;;;;;;5102873;27;20250;-63
2023/01/25 03:34:49;;;;;;;47.25;24.20;;;0.00;99.90;;;;;;5085104;27;20047;-63
2023/01/25 03:37:17;;;;;;;46.53;24.42;;;0.00;99.90;;;;;;5084757;27;20035;-63
2023/01/25 03:39:44;;;;;;;52.47;25.63;;;-0.10;99.90;;;;;;5081993;27;20274;-63
2023/01/25 03:42:12;;;;;;;44.10;25.23;;;-0.10;99.90;;;;;;5091614;27;20732;-63
2023/01/25 03:44:38;;;;;;;43.38;23.75;;;-0.10;99.90;;;;;;5102985;27;20145;-63
2023/01/25 03:47:05;;;;;;;44.33;22.45;;;-0.10;99.90;;;;;;5090745;27;20633;-63
2023/01/25 03:49:32;;;;;;;44.95;25.40;;;-0.10;99.90;;;;;;5084535;27;20575;-63
2023/01/25 03:52:00;;;;;;;44.03;22.40;;;-0.10;99.90;;;;;;5092113;27;20243;-64
2023/01/25 03:54:35;;;;;;;44.10;23.58;;;-0.10;99.90;;;;;;5086145;27;20043;-63
2023/01/25 03:57:02;;;;;;;43.80;23.77;;;-0.10;99.90;;;;;;5093304;27;20542;-63
2023/01/25 03:59:32;;;;;;;42.33;23.73;;;-0.10;99.90;;;;;;5085878;27;20124;-63
2023/01/25 04:01:59;;;;;;;;;;;-0.10;99.90;;;;;;5092582;27;20108;-62
2023/01/25 04:04:25;;;;;;;39.97;21.77;;;-0.20;99.90;;;;;;5084231;27;19923;-63
2023/01/25 04:06:52;;;;;;;45.42;24.27;;;-0.20;99.90;;;;;;5086123;27;20044;-63
2023/01/25 04:09:22;;;;;;;37.70;20.92;;;-0.20;99.90;;;;;;5086609;27;20031;-63
2023/01/25 04:11:51;;;;;;;41.45;21.95;;;-0.20;99.90;;;;;;5102833;27;20047;-63
2023/01/25 04:14:18;;;;;;;43.88;24.20;;;-0.20;99.90;;;;;;5082601;27;20062;-63
2023/01/25 04:17:04;;;;;;;42.63;22.90;;;-0.20;99.90;;;;;;5091150;27;20412;-63
2023/01/25 04:19:57;;;;;;;44.28;23.13;;;-0.10;99.90;;;;;;5091054;27;20039;-64
2023/01/25 04:22:30;;;;;;;44.45;23.50;;;-0.10;99.90;;;;;;5091546;27;20101;-63
2023/01/25 04:24:57;;;;;;;41.47;22.75;;;-0.10;99.90;;;;;;5081568;27;20100;-63
2023/01/25 04:27:24;;;;;;;;;;;-0.10;99.90;;;;;;5081223;27;20045;-63
2023/01/25 04:30:01;;;;;;;37.78;20.30;;;-0.10;99.90;;;;;;5085435;27;19935;-63
2023/01/25 04:32:29;;;;;;;43.78;22.02;;;-0.10;99.90;;;;;;5092850;27;20050;-63
2023/01/25 04:34:57;;;;;;;42.88;22.48;;;-0.10;99.90;;;;;;5084119;27;20101;-63
2023/01/25 04:37:27;;;;;;;37.53;21.60;;;-0.10;99.90;;;;;;5080033;27;20195;-62
2023/01/25 04:39:57;;;;;;;40.67;20.92;;;-0.10;99.90;;;;;;5084450;27;20044;-64
2023/01/25 04:42:25;;;;;;;37.75;21.35;;;-0.10;99.90;;;;;;5102364;27;20075;-63
2023/01/25 04:44:54;;;;;;;35.60;21.48;;;-0.10;99.90;;;;;;5083217;27;20035;-62
2023/01/25 04:47:21;;;;;;;36.30;19.60;;;-0.10;99.90;;;;;;5081466;27;20084;-63
2023/01/25 04:49:48;;;;;;;;;;;-0.10;99.90;;;;;;5084002;27;20100;-64
2023/01/25 04:52:18;;;;;;;32.15;17.45;;;-0.10;99.90;;;;;;5092539;27;20022;-63
2023/01/25 04:54:45;;;;;;;40.90;22.98;;;-0.10;99.90;;;;;;5080898;27;20043;-64
2023/01/25 04:57:12;;;;;;;;;;;0.00;99.90;;;;;;5090931;28;20273;-63
2023/01/25 04:59:42;;;;;;;39.15;19.35;;;0.00;99.90;;;;;;5080519;27;19931;-63
2023/01/25 05:02:08;;;;;;;39.75;20.63;;;0.00;99.90;;;;;;5084493;27;20540;-63
2023/01/25 05:04:36;;;;;;;34.40;19.27;;;0.00;99.90;;;;;;5067896;28;20540;-63
2023/01/25 05:07:03;;;;;;;40.45;20.60;;;0.00;99.90;;;;;;5067254;27;20044;-63
2023/01/25 05:09:30;;;;;;;36.83;18.25;;;0.00;99.90;;;;;;5080167;28;20044;-64
2023/01/25 05:11:57;;;;;;;38.78;19.20;;;0.00;99.90;;;;;;5094065;27;20194;-62
2023/01/25 05:14:32;;;;;;;38.20;20.42;;;0.00;99.90;;;;;;5099212;27;20048;-63
2023/01/25 05:17:06;;;;;;;34.17;18.25;;;0.00;99.90;;;;;;5093172;27;20637;-63
2023/01/25 05:19:33;;;;;;;39.95;18.88;;;0.00;99.90;;;;;;5083794;28;20047;-63
2023/01/25 05:22:06;;;;;;;35.50;18.58;;;0.00;99.90;;;;;;5083655;27;20528;-64
2023/01/25 05:24:40;;;;;;;36.30;19.25;;;0.00;99.90;;;;;;5090238;28;20280;-63
2023/01/25 05:27:10;;;;;;;33.33;18.75;;;0.00;99.90;;;;;;5090814;27;20158;-64
2023/01/25 05:30:03;;;;;;;37.95;19.45;;;0.00;99.90;;;;;;5104417;27;20065;-63
2023/01/25 05:32:56;;;;;;;33.42;17.95;;;-0.10;99.90;;;;;;5098476;27;20404;-64
2023/01/25 05:35:23;;;;;;;27.88;17.00;;;-0.10;99.90;;;;;;5084934;28;20138;-63
2023/01/25 05:37:57;;;;;;;29.90;16.77;;;-0.10;99.90;;;;;;5084634;27;20049;-63
2023/01/25 05:40:25;;;;;;;33.45;16.33;;;-0.10;99.90;;;;;;5101738;27;20591;-63
2023/01/25 05:42:58;;;;;;;29.92;16.52;;;-0.10;99.90;;;;;;5092483;27;20100;-63
2023/01/25 05:45:29;;;;;;;34.83;16.45;;;-0.10;99.90;;;;;;5093916;28;20128;-63
2023/01/25 05:47:57;;;;;;;31.23;17.10;;;-0.10;99.90;;;;;;5101909;27;20279;-63
2023/01/25 05:50:25;;;;;;;28.48;16.17;;;-0.10;99.90;;;;;;5104351;27;20063;-63
2023/01/25 05:53:02;;;;;;;32.45;16.15;;;-0.10;99.90;;;;;;5084122;27;20101;-63
2023/01/25 05:55:29;;;;;;;30.95;18.08;;;-0.10;99.90;;;;;;5102279;27;20047;-64
2023/01/25 05:58:01;;;;;;;28.92;15.88;;;-0.20;99.90;;;;;;5084091;27;20051;-63
2023/01/25 06:00:27;;;;;;;29.95;15.75;;;-0.20;99.90;;;;;;5091842;28;20513;-63
2023/01/25 06:02:58;;;;;;;26.13;15.55;;;-0.20;99.90;;;;;;5087168;28;20050;-63
2023/01/25 06:05:25;;;;;;;27.13;14.40;;;-0.20;99.90;;;;;;5091436;28;20046;-63
2023/01/25 06:07:53;;;;;;;31.65;16.00;;;-0.20;99.90;;;;;;5100300;27;20044;-64
2023/01/25 06:10:23;;;;;;;25.70;13.50;;;-0.20;99.90;;;;;;5085376;28;20081;-63
2023/01/25 06:12:50;;;;;;;25.13;13.15;;;-0.20;99.90;;;;;;5084633;27;20223;-63
2023/01/25 06:15:16;;;;;;;;;;;-0.20;99.90;;;;;;5068477;27;20088;-63
2023/01/25 06:17:43;;;;;;;24.70;14.02;;;-0.20;99.90;;;;;;5094452;27;20134;-63
2023/01/25 06:20:36;;;;;;;29.85;14.45;;;-0.20;99.90;;;;;;5104310;27;20097;-64
2023/01/25 06:23:06;;;;;;;28.80;15.13;;;-0.20;99.90;;;;;;5107972;27;20058;-62
2023/01/25 06:25:32;;;;;;;;;;;-0.30;99.90;;;;;;5105480;27;20437;-64
2023/01/25 06:27:59;;;;;;;23.70;13.57;;;-0.20;99.90;;;;;;5103505;27;20004;-64
2023/01/25 06:30:26;;;;;;;24.35;13.30;;;-0.20;99.90;;;;;;5105361;27;20815;-64
2023/01/25 06:32:52;;;;;;;;;;;-0.30;99.90;;;;;;5108876;27;20131;-63
2023/01/25 06:35:19;;;;;;;25.88;13.63;;;-0.30;99.90;;;;;;5107865;27;20337;-63
2023/01/25 06:37:46;;;;;;;26.17;14.15;;;-0.30;99.90;;;;;;5107272;27;20043;-62
2023/01/25 06:40:13;;;;;;;28.13;14.98;;;-0.30;99.90;;;;;;5090122;27;20035;-63
2023/01/25 06:42:40;;;;;;;28.95;14.10;;;-0.30;99.90;;;;;;5103074;27;20051;-63
2023/01/25 06:45:07;;;;;;;;;;;-0.30;99.90;;;;;;5108912;27;20312;-55
2023/01/25 06:47:34;;;;;;;24.95;13.98;;;-0.30;99.90;;;;;;5105663;27;19927;-53
2023/01/25 06:50:01;;;;;;;28.42;14.77;;;-0.30;99.90;;;;;;5105497;27;20504;-52
2023/01/25 06:52:27;;;;;;;;;;;-0.30;99.90;;;;;;5109494;27;20043;-52
2023/01/25 06:54:54;;;;;;;29.08;14.63;;;-0.30;99.90;;;;;;5107613;27;20641;-54
2023/01/25 06:57:20;;;;;;;25.98;13.77;;;-0.30;99.90;;;;;;5104595;27;20070;-51
2023/01/25 06:59:47;;;;;;;;;;;-0.30;99.90;;;;;;5105588;27;20044;-52
2023/01/25 07:02:15;;;;;;;26.83;14.35;;;-0.20;99.90;;;;;;5101487;27;19955;-55
2023/01/25 07:04:42;;;;;;;28.58;14.57;;;-0.20;99.90;;;;;;5105738;27;20047;-53
2023/01/25 07:07:09;;;;;;;24.48;14.35;;;-0.20;99.90;;;;;;5105194;27;20087;-53
2023/01/25 07:09:36;;;;;;;29.92;16.13;;;-0.20;99.90;;;;;;5103761;27;20048;-54
2023/01/25 07:12:05;;;;;;;;;;;-0.20;99.90;;;;;;5103306;27;20555;-54
2023/01/25 07:14:32;;;;;;;29.55;15.43;;;-0.20;99.90;;;;;;5106075;27;19977;-53
2023/01/25 07:16:59;;;;;;;29.85;15.73;;;-0.20;99.90;;;;;;5101952;27;20057;-54
2023/01/25 07:19:29;;;;;;;30.05;17.90;;;-0.10;99.90;;;;;;5106064;27;20255;-52
2023/01/25 07:21:56;;;;;;;;;;;-0.10;99.90;;;;;;5104851;27;20043;-53
2023/01/25 07:24:25;;;;;;;32.58;17.80;;;-0.10;99.90;;;;;;5106166;27;20014;-54
2023/01/25 07:26:52;;;;;;;31.27;18.05;;;-0.10;99.90;;;;;;5103833;27;20044;-55
2023/01/25 07:29:19;;;;;;;36.03;17.65;;;-0.20;99.90;;;;;;5102068;27;20039;-53
2023/01/25 07:31:46;;;;;;;;;;;-0.20;99.90;;;;;;5104541;27;20246;-54
2023/01/25 07:34:13;;;;;;;30.52;16.65;;;-0.20;99.90;;;;;;5104538;27;20320;-53
2023/01/25 07:36:40;;;;;;;;;;;-0.20;99.90;;;;;;5107133;27;20624;-53
2023/01/25 07:39:09;;;;;;;31.33;17.80;;;-0.10;99.90;;;;;;5103034;27;20298;-53
2023/01/25 07:41:36;;;;;;;31.90;16.48;;;-0.10;99.90;;;;;;5102360;27;20051;-53
2023/01/25 07:44:03;;;;;;;33.70;18.88;;;-0.10;99.90;;;;;;5106017;27;20112;-53
2023/01/25 07:46:37;;;;;;;32.72;17.45;;;-0.10;99.90;;;;;;5086339;27;20204;-54
2023/01/25 07:49:04;;;;;;;;;;;-0.10;99.90;;;;;;5101423;27;20073;-52
2023/01/25 07:51:30;;;;;;;32.42;15.68;;;0.00;99.90;;;;;;5103717;27;20840;-54
2023/01/25 07:53:59;;;;;;;;;;;0.00;99.90;;;;;;5103593;27;20498;-53
2023/01/25 07:56:28;;;;;;;33.35;17.50;;;0.00;99.90;;;;;;5105039;27;20018;-53
2023/01/25 07:58:56;;;;;;;32.60;18.13;;;0.00;99.90;;;;;;5087509;27;20414;-53
2023/01/25 08:01:26;;;;;;;31.67;18.08;;;0.00;99.90;;;;;;5107537;27;20754;-52
2023/01/25 08:03:57;;;;;;;34.45;18.48;;;0.00;99.90;;;;;;5102831;27;20244;-54
2023/01/25 08:06:34;;;;;;;34.00;18.02;;;0.00;99.90;;;;;;5102968;27;20043;-53
2023/01/25 08:09:11;;;;;;;36.65;18.25;;;0.10;99.90;;;;;;5106616;27;20058;-51
2023/01/25 08:11:38;;;;;;;37.58;19.42;;;0.00;99.90;;;;;;5102850;27;20477;-51
2023/01/25 08:14:04;;;;;;;32.22;18.30;;;0.00;99.90;;;;;;5107438;27;20482;-54
2023/01/25 08:16:31;;;;;;;;;;;0.00;99.90;;;;;;5105810;27;20074;-52
2023/01/25 08:19:00;;;;;;;27.27;14.38;;;0.00;99.90;;;;;;5103881;27;19931;-54
2023/01/25 08:21:29;;;;;;;30.05;16.40;;;0.10;99.90;;;;;;5101733;27;20197;-53
2023/01/25 08:24:02;;;;;;;27.88;15.52;;;0.10;99.90;;;;;;5105703;27;20116;-54
2023/01/25 08:26:29;;;;;;;31.30;16.42;;;0.10;99.90;;;;;;5102804;27;20556;-53
2023/01/25 08:28:57;;;;;;;35.33;19.17;;;0.10;99.90;;;;;;5091175;27;20071;-51
2023/01/25 08:31:26;;;;;;;34.35;18.23;;;0.10;99.90;;;;;;5088489;27;20223;-52
2023/01/25 08:33:54;;;;;;;36.85;19.67;;;0.10;99.90;;;;;;5089194;27;20039;-52
2023/01/25 08:36:23;;;;;;;35.75;19.20;;;0.20;99.90;;;;;;5085340;27;20573;-49
2023/01/25 08:38:57;;;;;;;38.15;20.48;;;0.20;99.90;;;;;;5076329;27;20043;-53
2023/01/25 08:41:24;;;;;;;36.53;20.23;;;0.20;99.90;;;;;;5088511;27;20104;-52
2023/01/25 08:43:53;;;;;;;36.00;19.77;;;0.20;99.90;;;;;;5091070;27;20273;-50
2023/01/25 08:46:22;;;;;;;35.70;19.27;;;0.30;99.90;;;;;;5088662;27;20274;-53
2023/01/25 08:48:53;;;;;;;32.10;17.38;;;0.30;99.90;;;;;;5086717;27;20829;-50
2023/01/25 08:51:21;;;;;;;35.58;19.55;;;0.30;99.90;;;;;;5088726;27;20557;-50
2023/01/25 08:53:47;;;;;;;34.03;18.45;;;0.30;99.90;;;;;;5087804;27;20087;-51
2023/01/25 08:56:15;;;;;;;35.17;19.15;;;0.20;99.90;;;;;;5088430;27;20040;-50
2023/01/25 08:58:47;;;;;;;31.75;18.17;;;0.20;99.90;;;;;;5088106;27;20047;-49
2023/01/25 09:01:16;;;;;;;29.13;18.90;;;0.20;99.90;;;;;;5086922;27;20063;-49
2023/01/25 09:03:45;;;;;;;36.17;19.30;;;0.30;99.90;;;;;;5086692;27;20134;-51
2023/01/25 09:06:12;;;;;;;32.95;19.40;;;0.30;99.90;;;;;;5089434;27;20031;-53
2023/01/25 09:08:40;;;;;;;33.92;18.90;;;0.30;99.90;;;;;;5087765;27;20564;-52
2023/01/25 09:11:10;;;;;;;29.33;17.80;;;0.30;99.90;;;;;;5088233;27;20122;-60
2023/01/25 09:13:37;;;;;;;36.55;18.73;;;0.30;99.90;;;;;;5091688;27;20035;-52
2023/01/25 09:16:07;;;;;;;33.60;18.83;;;0.30;99.90;;;;;;5091305;27;20350;-49
2023/01/25 09:18:36;;;;;;;29.85;18.30;;;0.40;99.90;;;;;;5087182;27;20231;-52
2023/01/25 09:21:11;;;;;;;33.90;18.55;;;0.40;99.90;;;;;;5088809;27;20402;-52
2023/01/25 09:23:39;;;;;;;30.73;16.63;;;0.40;99.90;;;;;;5090635;27;20100;-50
2023/01/25 09:26:16;;;;;;;31.17;17.65;;;0.40;99.90;;;;;;5090346;27;20631;-50
2023/01/25 09:28:49;;;;;;;33.58;17.85;;;0.50;99.90;;;;;;5088507;27;20425;-48
2023/01/25 09:31:16;;;;;;;29.77;17.38;;;0.50;99.90;;;;;;5085488;27;20136;-48
2023/01/25 09:34:08;;;;;;;31.50;17.90;;;0.50;99.90;;;;;;5088212;27;20096;-48
2023/01/25 09:36:35;;;;;;;28.50;16.92;;;0.60;99.90;;;;;;5071035;28;20690;-49
2023/01/25 09:39:02;;;;;;;31.38;17.35;;;0.60;99.90;;;;;;5087713;27;20280;-51
2023/01/25 09:41:52;;;;;;;29.95;16.85;;;0.60;99.90;;;;;;5088645;27;20043;-51
2023/01/25 09:44:49;;;;;;;29.83;16.35;;;0.60;99.90;;;;;;5089732;27;20133;-50
2023/01/25 09:47:54;;;;;;;30.80;16.05;;;0.60;99.90;;;;;;5089095;27;20453;-51
2023/01/25 09:50:51;;;;;;;34.72;19.20;;;0.60;99.90;;;;;;5072777;27;20505;-50
2023/01/25 09:53:18;;;;;;;30.40;16.63;;;0.70;99.90;;;;;;5093698;27;20317;-49
2023/01/25 09:55:49;;;;;;;;;;;0.70;99.90;;;;;;5096026;27;20144;-52
2023/01/25 09:58:21;;;;;;;29.92;14.68;;;0.70;99.90;;;;;;5089513;27;19963;-49
2023/01/25 10:00:53;;;;;;;32.35;15.98;;;0.70;99.90;;;;;;5088209;27;20756;-49
2023/01/25 10:03:39;;;;;;;31.02;17.40;;;0.70;99.90;;;;;;5091962;27;20039;-48
2023/01/25 10:06:12;;;;;;;27.55;15.38;;;0.80;99.90;;;;;;5079673;27;20118;-54
2023/01/25 10:08:55;;;;;;;31.05;17.80;;;0.80;99.90;;;;;;5090898;27;20040;-50
2023/01/25 10:11:26;;;;;;;29.85;15.65;;;0.80;99.90;;;;;;5093278;27;20043;-49
2023/01/25 10:13:55;;;;;;;28.52;16.15;;;0.80;99.90;;;;;;5092828;27;20720;-51
2023/01/25 10:16:48;;;;;;;30.55;16.30;;;0.80;99.90;;;;;;5089062;27;20023;-50
2023/01/25 10:19:57;;;;;;;31.65;16.67;;;0.80;99.90;;;;;;5093815;27;20491;-52
2023/01/25 10:22:29;;;;;;;29.50;16.43;;;0.80;99.90;;;;;;5091803;27;20632;-51
2023/01/25 10:25:19;;;;;;;31.17;16.98;;;0.90;99.90;;;;;;5093238;27;20334;-52
2023/01/25 10:28:01;;;;;;;31.48;16.17;;;0.90;99.90;;;;;;5090925;27;20607;-52
2023/01/25 10:30:53;;;;;;;31.02;17.60;;;0.90;99.90;;;;;;5088860;27;20039;-48
2023/01/25 10:33:20;;;;;;;29.30;16.95;;;0.90;99.90;;;;;;5083605;27;20389;-48
2023/01/25 10:35:48;;;;;;;32.83;17.63;;;0.90;99.90;;;;;;5073116;27;20075;-52
2023/01/25 10:38:22;;;;;;;35.42;18.30;;;0.90;99.90;;;;;;5090584;27;20110;-53
2023/01/25 10:41:01;;;;;;;28.95;16.17;;;0.90;99.90;;;;;;5091817;27;20074;-52
2023/01/25 10:43:28;;;;;;;32.97;17.20;;;0.90;99.90;;;;;;5072563;27;20166;-50
2023/01/25 10:45:55;;;;;;;34.10;19.05;;;0.90;99.90;;;;;;5089385;27;20153;-53
2023/01/25 10:48:32;;;;;;;;;;;0.90;99.90;;;;;;5086116;27;20261;-53
2023/01/25 10:50:59;;;;;;;34.35;16.55;;;0.90;99.90;;;;;;5087841;27;19934;-51
2023/01/25 10:53:26;;;;;;;;;;;0.90;99.90;;;;;;5080027;27;20126;-53
2023/01/25 10:56:15;;;;;;;32.92;16.83;;;0.80;99.90;;;;;;5091037;27;19929;-52
2023/01/25 10:58:47;;;;;;;32.83;16.27;;;0.80;99.90;;;;;;5090486;27;20142;-52
2023/01/25 11:01:29;;;;;;;33.63;16.73;;;0.80;99.90;;;;;;5089134;27;20321;-50
2023/01/25 11:03:58;;;;;;;30.25;16.40;;;0.80;99.90;;;;;;5092728;27;20463;-52
2023/01/25 11:06:50;;;;;;;31.75;16.40;;;0.80;99.90;;;;;;5087573;27;20537;-51
2023/01/25 11:09:20;;;;;;;36.30;17.88;;;0.70;99.90;;;;;;5081783;27;20055;-51
2023/01/25 11:12:17;;;;;;;29.50;16.20;;;0.70;99.90;;;;;;5089875;27;20044;-50
2023/01/25 11:14:49;;;;;;;25.27;13.07;;;0.60;99.90;;;;;;5029642;27;20592;-51
2023/01/25 11:17:24;;;;;;;28.48;15.30;;;0.50;99.90;;;;;;5091935;27;20910;-51
2023/01/25 11:20:23;;;;;;;25.77;14.40;;;0.50;99.90;;;;;;5074874;27;20055;-50
2023/01/25 11:22:55;;;;;;;27.63;12.98;;;0.50;99.90;;;;;;5057785;27;20522;-50
2023/01/25 11:25:42;;;;;;;27.50;14.68;;;0.50;99.90;;;;;;5089890;27;20509;-50
2023/01/25 11:28:10;;;;;;;26.13;13.23;;;0.50;99.90;;;;;;5088399;27;20526;-52
2023/01/25 11:30:37;;;;;;;25.52;13.40;;;0.50;99.90;;;;;;5088434;27;21157;-51
2023/01/25 11:33:10;;;;;;;29.55;15.15;;;0.50;99.90;;;;;;5089782;27;20059;-49
2023/01/25 11:35:56;;;;;;;30.80;16.25;;;0.60;99.90;;;;;;5090573;27;20235;-49
2023/01/25 11:38:23;;;;;;;28.13;15.65;;;0.60;99.90;;;;;;5087613;27;20043;-61
2023/01/25 11:41:04;;;;;;;32.78;17.15;;;0.60;99.90;;;;;;5091422;27;20074;-54
2023/01/25 11:44:03;;;;;;;31.35;15.50;;;0.60;99.90;;;;;;5090005;27;20063;-54
2023/01/25 11:47:11;;;;;;;30.13;16.35;;;0.60;99.90;;;;;;5074182;27;20348;-57
2023/01/25 11:49:47;;;;;;;30.52;15.82;;;0.60;99.90;;;;;;5072885;27;20134;-50
2023/01/25 11:52:42;;;;;;;25.17;14.40;;;0.60;99.90;;;;;;5091466;27;20040;-51
2023/01/25 11:55:25;;;;;;;29.17;14.80;;;0.60;99.90;;;;;;5091299;27;20505;-50
2023/01/25 11:58:28;;;;;;;29.45;14.85;;;0.60;99.90;;;;;;5067266;27;20047;-51
2023/01/25 12:01:10;;;;;;;33.63;16.77;;;0.70;99.90;;;;;;5091636;27;20321;-51
2023/01/25 12:03:52;;;;;;;27.83;14.75;;;0.70;99.90;;;;;;5088477;27;20092;-52
2023/01/25 12:06:47;;;;;;;29.45;15.95;;;0.70;99.90;;;;;;5088951;27;20635;-50
2023/01/25 12:09:35;;;;;;;33.15;16.20;;;0.70;99.90;;;;;;5088359;27;20234;-53
2023/01/25 12:12:10;;;;;;;33.85;17.20;;;0.70;99.90;;;;;;5069849;27;20213;-51
2023/01/25 12:14:40;;;;;;;29.08;16.15;;;0.70;99.90;;;;;;5079985;27;20070;-51
2023/01/25 12:17:25;;;;;;;26.38;14.13;;;0.70;99.90;;;;;;5088241;27;20054;-50
2023/01/25 12:20:21;;;;;;;31.45;15.43;;;0.60;99.90;;;;;;5087432;27;20073;-53
2023/01/25 12:22:50;;;;;;;29.42;15.10;;;0.70;99.90;;;;;;5089446;27;20112;-52
2023/01/25 12:25:29;;;;;;;31.65;15.55;;;0.70;99.90;;;;;;5087506;27;20245;-50
2023/01/25 12:28:11;;;;;;;29.50;14.70;;;0.70;99.90;;;;;;5069467;27;20036;-51
2023/01/25 12:30:54;;;;;;;29.42;15.35;;;0.70;99.90;;;;;;5069004;27;20051;-52
2023/01/25 12:33:41;;;;;;;28.20;14.88;;;0.70;99.90;;;;;;5089442;27;20043;-49
2023/01/25 12:36:27;;;;;;;31.73;17.07;;;0.70;99.90;;;;;;5088668;27;20040;-52
2023/01/25 12:39:13;;;;;;;28.63;14.98;;;0.70;99.90;;;;;;5087191;27;20850;-53
2023/01/25 12:41:56;;;;;;;27.83;15.52;;;0.70;99.90;;;;;;5090362;27;20039;-50
2023/01/25 12:44:42;;;;;;;33.40;16.50;;;0.70;99.90;;;;;;5088578;27;20355;-51
2023/01/25 12:47:14;;;;;;;29.23;15.07;;;0.70;99.90;;;;;;5078128;27;20066;-50
2023/01/25 12:49:49;;;;;;;32.38;16.33;;;0.70;99.90;;;;;;5090546;27;20035;-53
2023/01/25 12:52:32;;;;;;;27.90;13.95;;;0.70;99.90;;;;;;5085443;27;20266;-51
2023/01/25 12:55:06;;;;;;;25.20;13.63;;;0.60;99.90;;;;;;5087630;27;20044;-50
2023/01/25 12:58:06;;;;;;;27.52;15.02;;;0.70;99.90;;;;;;5070577;27;20068;-51
2023/01/25 13:00:56;;;;;;;28.38;15.57;;;0.70;99.90;;;;;;5084702;27;20108;-51
2023/01/25 13:03:32;;;;;;;29.20;15.77;;;0.70;99.90;;;;;;5090276;27;20047;-50
2023/01/25 13:06:12;;;;;;;28.40;15.23;;;0.70;99.90;;;;;;5089379;27;20055;-51
2023/01/25 13:09:09;;;;;;;31.85;16.75;;;0.60;99.90;;;;;;5087200;27;20050;-54
2023/01/25 13:11:41;;;;;;;26.83;15.45;;;0.60;99.90;;;;;;5088816;27;20043;-49